createdAt,value
2016-12-17T00:00:16.618Z,99.99
2016-12-17T00:00:57.112Z,99.99
2016-12-17T00:01:37.610Z,99.99
2016-12-17T00:02:18.110Z,99.99
2016-12-17T00:02:58.621Z,99.99
2016-12-17T00:03:39.115Z,99.99
2016-12-17T00:04:19.604Z,99.99
2016-12-17T00:05:00.089Z,99.99
2016-12-17T00:05:40.583Z,99.99
2016-12-17T00:06:21.077Z,99.99
2016-12-17T00:07:01.579Z,99.99
2016-12-17T00:07:42.067Z,99.99
2016-12-17T00:08:22.573Z,99.99
2016-12-17T00:09:03.059Z,99.99
2016-12-17T00:09:43.549Z,99.99
2016-12-17T00:10:24.048Z,99.99
2016-12-17T00:11:04.544Z,99.99
2016-12-17T00:11:45.059Z,99.99
2016-12-17T00:12:25.560Z,99.99
2016-12-17T00:13:06.054Z,99.99
2016-12-17T00:13:46.549Z,99.99
2016-12-17T00:14:27.055Z,99.99
2016-12-17T00:15:07.542Z,99.99
2016-12-17T00:15:48.027Z,99.99
2016-12-17T00:16:28.518Z,99.99
2016-12-17T00:17:09.015Z,99.99
2016-12-17T00:17:49.534Z,99.99
2016-12-17T00:18:30.081Z,99.99
2016-12-17T00:19:10.560Z,99.99
2016-12-17T00:19:51.054Z,99.99
2016-12-17T00:20:31.545Z,99.99
2016-12-17T00:21:12.049Z,99.99
2016-12-17T00:21:52.550Z,99.99
2016-12-17T00:22:33.053Z,99.99
2016-12-17T00:23:13.548Z,99.99
2016-12-17T00:23:54.043Z,99.99
2016-12-17T00:24:34.542Z,99.99
2016-12-17T00:25:15.080Z,99.95
2016-12-17T00:25:55.568Z,99.99
2016-12-17T00:26:36.062Z,99.99
2016-12-17T00:27:16.570Z,99.99
2016-12-17T00:27:57.058Z,99.99
2016-12-17T00:28:37.544Z,99.99
2016-12-17T00:29:18.040Z,99.99
2016-12-17T00:29:58.548Z,99.99
2016-12-17T00:30:39.072Z,99.99
2016-12-17T00:31:19.535Z,99.99
2016-12-17T00:32:00.051Z,99.99
2016-12-17T00:32:40.539Z,99.99
2016-12-17T00:33:21.014Z,99.99
2016-12-17T00:34:01.483Z,99.66
2016-12-17T00:34:41.968Z,99.76
2016-12-17T00:35:22.454Z,99.99
2016-12-17T00:36:02.948Z,99.99
2016-12-17T00:36:43.433Z,99.95
2016-12-17T00:37:23.925Z,99.99
2016-12-17T00:38:04.421Z,99.99
2016-12-17T00:38:44.933Z,99.99
2016-12-17T00:39:25.429Z,99.99
2016-12-17T00:40:05.909Z,99.99
2016-12-17T00:40:46.420Z,99.99
2016-12-17T00:41:26.898Z,99.99
2016-12-17T00:42:07.393Z,99.99
2016-12-17T00:42:47.880Z,99.99
2016-12-17T00:43:28.334Z,99.99
2016-12-17T00:44:08.831Z,99.99
2016-12-17T00:44:49.334Z,99.99
2016-12-17T00:45:29.827Z,99.99
2016-12-17T00:46:10.319Z,99.99
2016-12-17T00:46:50.805Z,99.99
2016-12-17T00:47:31.283Z,99.99
2016-12-17T00:48:11.780Z,99.99
2016-12-17T00:48:52.270Z,99.99
2016-12-17T00:49:32.771Z,99.99
2016-12-17T00:50:13.267Z,99.99
2016-12-17T00:50:53.782Z,99.99
2016-12-17T00:51:34.266Z,99.99
2016-12-17T00:52:14.780Z,99.99
2016-12-17T00:52:55.265Z,99.99
2016-12-17T00:53:35.760Z,99.99
2016-12-17T00:54:16.273Z,99.99
2016-12-17T00:54:56.753Z,99.99
2016-12-17T00:55:37.231Z,99.99
2016-12-17T00:56:17.731Z,99.99
2016-12-17T00:56:58.215Z,99.99
2016-12-17T00:57:38.698Z,99.99
2016-12-17T00:58:19.202Z,99.99
2016-12-17T00:58:59.687Z,99.99
2016-12-17T00:59:40.178Z,99.99
2016-12-17T01:00:20.676Z,99.76
2016-12-17T01:01:01.151Z,99.76
2016-12-17T01:01:41.628Z,99.99
2016-12-17T01:02:22.110Z,99.99
2016-12-17T01:03:02.598Z,99.99
2016-12-17T01:03:43.108Z,99.99
2016-12-17T01:04:23.571Z,99.99
2016-12-17T01:05:04.075Z,99.99
2016-12-17T01:05:44.561Z,99.99
2016-12-17T01:06:25.052Z,99.99
2016-12-17T01:07:05.549Z,99.99
2016-12-17T01:07:46.043Z,99.99
2016-12-17T01:08:26.517Z,99.99
2016-12-17T01:09:07.068Z,99.71
2016-12-17T01:09:47.559Z,99.99
2016-12-17T01:10:28.052Z,99.71
2016-12-17T01:11:08.543Z,99.71
2016-12-17T01:11:49.034Z,99.9
2016-12-17T01:12:29.534Z,99.99
2016-12-17T01:13:10.053Z,99.99
2016-12-17T01:13:50.540Z,99.99
2016-12-17T01:14:31.002Z,99.99
2016-12-17T01:15:11.498Z,99.99
2016-12-17T01:15:51.997Z,99.9
2016-12-17T01:16:32.502Z,99.99
2016-12-17T01:17:12.978Z,99.99
2016-12-17T01:17:53.451Z,99.99
2016-12-17T01:18:33.946Z,99.81
2016-12-17T01:19:14.435Z,99.71
2016-12-17T01:19:54.987Z,99.62
2016-12-17T01:20:35.483Z,99.71
2016-12-17T01:21:15.980Z,99.62
2016-12-17T01:21:56.484Z,99.71
2016-12-17T01:22:36.966Z,99.81
2016-12-17T01:23:17.459Z,99.99
2016-12-17T01:23:57.965Z,99.99
2016-12-17T01:24:38.451Z,99.99
2016-12-17T01:25:18.945Z,99.81
2016-12-17T01:25:59.447Z,99.99
2016-12-17T01:26:39.985Z,99.99
2016-12-17T01:27:20.485Z,99.99
2016-12-17T01:28:00.972Z,99.81
2016-12-17T01:28:41.462Z,99.81
2016-12-17T01:29:21.960Z,99.9
2016-12-17T01:30:02.444Z,99.62
2016-12-17T01:30:42.941Z,99.81
2016-12-17T01:31:23.424Z,99.99
2016-12-17T01:32:03.927Z,99.62
2016-12-17T01:32:44.412Z,99.99
2016-12-17T01:33:24.917Z,99.81
2016-12-17T01:34:05.408Z,99.71
2016-12-17T01:34:45.897Z,99.99
2016-12-17T01:35:26.391Z,99.99
2016-12-17T01:36:06.886Z,99.81
2016-12-17T01:36:47.370Z,99.81
2016-12-17T01:37:27.864Z,99.71
2016-12-17T01:38:08.362Z,99.99
2016-12-17T01:38:48.864Z,99.99
2016-12-17T01:39:29.363Z,99.71
2016-12-17T01:40:09.853Z,99.99
2016-12-17T01:40:50.336Z,99.71
2016-12-17T01:41:30.846Z,99.81
2016-12-17T01:42:11.335Z,99.99
2016-12-17T01:42:51.825Z,99.99
2016-12-17T01:43:32.413Z,99.99
2016-12-17T01:44:12.904Z,99.99
2016-12-17T01:44:53.396Z,99.99
2016-12-17T01:45:33.902Z,99.99
2016-12-17T01:46:14.395Z,99.99
2016-12-17T01:46:54.881Z,99.99
2016-12-17T01:47:35.394Z,99.99
2016-12-17T01:48:15.873Z,99.99
2016-12-17T01:48:56.372Z,99.99
2016-12-17T01:49:36.858Z,99.71
2016-12-17T01:50:17.383Z,99.71
2016-12-17T01:50:57.871Z,99.81
2016-12-17T01:51:38.354Z,99.71
2016-12-17T01:52:18.844Z,99.71
2016-12-17T01:52:59.325Z,99.99
2016-12-17T01:53:39.834Z,99.81
2016-12-17T01:54:20.308Z,99.9
2016-12-17T01:55:00.812Z,99.81
2016-12-17T01:55:41.303Z,99.99
2016-12-17T01:56:21.791Z,99.9
2016-12-17T01:57:02.285Z,99.9
2016-12-17T01:57:42.770Z,99.99
2016-12-17T01:58:23.277Z,99.71
2016-12-17T01:59:03.763Z,99.9
2016-12-17T01:59:44.261Z,99.9
2016-12-17T02:00:24.755Z,99.99
2016-12-17T02:01:05.312Z,99.99
2016-12-17T02:01:45.796Z,99.81
2016-12-17T02:02:26.297Z,99.99
2016-12-17T02:03:06.784Z,99.99
2016-12-17T02:03:47.291Z,99.99
2016-12-17T02:04:27.769Z,99.9
2016-12-17T02:05:08.274Z,99.81
2016-12-17T02:05:48.773Z,99.76
2016-12-17T02:06:29.275Z,99.99
2016-12-17T02:07:09.745Z,99.99
2016-12-17T02:07:50.299Z,99.99
2016-12-17T02:08:30.800Z,99.99
2016-12-17T02:09:11.274Z,99.99
2016-12-17T02:09:51.796Z,99.99
2016-12-17T02:10:32.304Z,99.99
2016-12-17T02:11:12.805Z,99.99
2016-12-17T02:11:53.300Z,99.99
2016-12-17T02:12:33.814Z,99.99
2016-12-17T02:13:14.306Z,99.99
2016-12-17T02:13:54.791Z,99.99
2016-12-17T02:14:35.301Z,99.99
2016-12-17T02:15:15.800Z,99.99
2016-12-17T02:15:56.285Z,99.9
2016-12-17T02:16:36.793Z,99.99
2016-12-17T02:17:17.263Z,99.99
2016-12-17T02:17:57.764Z,99.99
2016-12-17T02:18:38.246Z,99.99
2016-12-17T02:19:18.724Z,99.99
2016-12-17T02:19:59.221Z,99.99
2016-12-17T02:20:39.710Z,99.99
2016-12-17T02:21:20.205Z,99.99
2016-12-17T02:22:00.666Z,99.99
2016-12-17T02:22:41.166Z,99.99
2016-12-17T02:23:21.666Z,99.99
2016-12-17T02:24:02.169Z,99.99
2016-12-17T02:24:42.645Z,99.81
2016-12-17T02:25:23.138Z,99.71
2016-12-17T02:26:03.629Z,99.99
2016-12-17T02:26:44.107Z,99.81
2016-12-17T02:27:24.606Z,99.99
2016-12-17T02:28:05.101Z,99.99
2016-12-17T02:28:45.594Z,99.81
2016-12-17T02:29:26.080Z,99.33
2016-12-17T02:30:06.582Z,99.62
2016-12-17T02:30:47.077Z,99.71
2016-12-17T02:31:27.589Z,99.62
2016-12-17T02:32:08.063Z,99.62
2016-12-17T02:32:48.552Z,99.62
2016-12-17T02:33:29.057Z,99.52
2016-12-17T02:34:09.550Z,98.96
2016-12-17T02:34:50.038Z,99.05
2016-12-17T02:35:30.531Z,99.05
2016-12-17T02:36:11.023Z,99.15
2016-12-17T02:36:51.517Z,99.33
2016-12-17T02:37:32.002Z,99.24
2016-12-17T02:38:12.505Z,99.15
2016-12-17T02:38:53.010Z,99.24
2016-12-17T02:39:33.504Z,99.33
2016-12-17T02:40:13.998Z,99.05
2016-12-17T02:40:54.480Z,98.96
2016-12-17T02:41:34.984Z,98.86
2016-12-17T02:42:15.472Z,98.86
2016-12-17T02:42:55.996Z,99.15
2016-12-17T02:43:36.472Z,99.05
2016-12-17T02:44:16.969Z,99.05
2016-12-17T02:44:57.462Z,99.43
2016-12-17T02:45:37.962Z,99.15
2016-12-17T02:46:18.467Z,98.96
2016-12-17T02:46:58.962Z,99.05
2016-12-17T02:47:39.441Z,99.05
2016-12-17T02:48:19.974Z,99.24
2016-12-17T02:49:00.474Z,99.24
2016-12-17T02:49:40.966Z,99.38
2016-12-17T02:50:21.480Z,99.01
2016-12-17T02:51:02.069Z,98.82
2016-12-17T02:51:42.481Z,99.19
2016-12-17T02:52:22.973Z,99.48
2016-12-17T02:53:03.468Z,99.38
2016-12-17T02:53:43.961Z,99.57
2016-12-17T02:54:24.449Z,99.76
2016-12-17T02:55:04.980Z,99.66
2016-12-17T02:55:45.484Z,99.57
2016-12-17T02:56:25.976Z,99.66
2016-12-17T02:57:06.471Z,99.48
2016-12-17T02:57:46.959Z,99.66
2016-12-17T02:58:27.466Z,99.48
2016-12-17T02:59:07.957Z,99.66
2016-12-17T02:59:48.473Z,99.57
2016-12-17T03:00:28.963Z,99.48
2016-12-17T03:01:09.460Z,99.57
2016-12-17T03:01:49.996Z,99.99
2016-12-17T03:02:30.495Z,99.99
2016-12-17T03:03:10.988Z,99.99
2016-12-17T03:03:51.480Z,99.81
2016-12-17T03:04:31.974Z,99.99
2016-12-17T03:05:12.464Z,99.99
2016-12-17T03:05:52.966Z,99.71
2016-12-17T03:06:33.452Z,99.48
2016-12-17T03:07:13.939Z,99.99
2016-12-17T03:07:54.410Z,99.71
2016-12-17T03:08:34.952Z,99.71
2016-12-17T03:09:15.389Z,99.71
2016-12-17T03:09:55.884Z,99.81
2016-12-17T03:10:36.392Z,99.62
2016-12-17T03:11:16.900Z,99.71
2016-12-17T03:11:57.382Z,99.99
2016-12-17T03:12:37.881Z,99.81
2016-12-17T03:13:18.382Z,99.81
2016-12-17T03:13:58.875Z,99.71
2016-12-17T03:14:39.371Z,99.99
2016-12-17T03:15:19.868Z,99.81
2016-12-17T03:16:00.361Z,99.99
2016-12-17T03:16:40.861Z,99.99
2016-12-17T03:17:21.354Z,99.99
2016-12-17T03:18:01.837Z,99.99
2016-12-17T03:18:42.313Z,99.99
2016-12-17T03:19:22.788Z,99.99
2016-12-17T03:20:03.287Z,99.99
2016-12-17T03:20:43.796Z,99.99
2016-12-17T03:21:24.289Z,99.99
2016-12-17T03:22:04.805Z,99.81
2016-12-17T03:22:45.317Z,99.99
2016-12-17T03:23:25.822Z,99.99
2016-12-17T03:24:06.331Z,99.71
2016-12-17T03:24:46.789Z,99.99
2016-12-17T03:25:27.332Z,99.99
2016-12-17T03:26:07.791Z,99.99
2016-12-17T03:26:48.289Z,99.99
2016-12-17T03:27:28.789Z,99.99
2016-12-17T03:28:09.278Z,99.99
2016-12-17T03:28:49.782Z,99.99
2016-12-17T03:29:30.292Z,99.99
2016-12-17T03:30:10.789Z,99.99
2016-12-17T03:30:51.279Z,99.99
2016-12-17T03:31:31.781Z,99.99
2016-12-17T03:32:12.248Z,99.99
2016-12-17T03:32:52.760Z,99.99
2016-12-17T03:33:33.247Z,99.99
2016-12-17T03:34:13.724Z,99.99
2016-12-17T03:34:54.221Z,99.99
2016-12-17T03:35:34.718Z,99.99
2016-12-17T03:36:15.203Z,99.99
2016-12-17T03:36:55.712Z,99.99
2016-12-17T03:37:36.211Z,99.99
2016-12-17T03:38:16.711Z,99.99
2016-12-17T03:38:57.203Z,99.99
2016-12-17T03:39:37.709Z,99.99
2016-12-17T03:40:18.198Z,99.99
2016-12-17T03:40:58.684Z,99.99
2016-12-17T03:41:39.179Z,99.99
2016-12-17T03:42:19.685Z,99.99
2016-12-17T03:43:00.167Z,99.99
2016-12-17T03:43:40.660Z,99.99
2016-12-17T03:44:21.161Z,99.99
2016-12-17T03:45:01.668Z,99.99
2016-12-17T03:45:42.171Z,99.99
2016-12-17T03:46:22.678Z,99.99
2016-12-17T03:47:03.166Z,99.99
2016-12-17T03:47:43.668Z,99.99
2016-12-17T03:48:24.156Z,99.99
2016-12-17T03:49:04.647Z,99.99
2016-12-17T03:49:45.151Z,99.99
2016-12-17T03:50:25.648Z,99.99
2016-12-17T03:51:06.140Z,99.99
2016-12-17T03:51:46.642Z,99.99
2016-12-17T03:52:27.138Z,99.99
2016-12-17T03:53:07.641Z,99.71
2016-12-17T03:53:48.125Z,99.99
2016-12-17T03:54:28.603Z,99.99
2016-12-17T03:55:09.099Z,99.81
2016-12-17T03:55:49.594Z,99.99
2016-12-17T03:56:30.092Z,99.99
2016-12-17T03:57:10.575Z,99.81
2016-12-17T03:57:51.055Z,99.81
2016-12-17T03:58:31.558Z,99.81
2016-12-17T03:59:12.055Z,99.9
2016-12-17T03:59:52.566Z,99.99
2016-12-17T04:00:33.051Z,99.99
2016-12-17T04:01:13.553Z,99.99
2016-12-17T04:01:54.075Z,99.99
2016-12-17T04:02:34.570Z,99.9
2016-12-17T04:03:15.067Z,99.99
2016-12-17T04:03:55.538Z,99.99
2016-12-17T04:04:36.024Z,99.71
2016-12-17T04:05:16.500Z,99.99
2016-12-17T04:05:56.999Z,99.99
2016-12-17T04:06:37.478Z,99.71
2016-12-17T04:07:17.988Z,99.99
2016-12-17T04:07:58.471Z,99.99
2016-12-17T04:08:38.980Z,99.99
2016-12-17T04:09:19.459Z,99.99
2016-12-17T04:09:59.937Z,99.99
2016-12-17T04:10:40.462Z,99.99
2016-12-17T04:11:20.936Z,99.9
2016-12-17T04:12:01.440Z,99.9
2016-12-17T04:12:41.934Z,99.99
2016-12-17T04:13:22.437Z,99.99
2016-12-17T04:14:02.924Z,99.71
2016-12-17T04:14:43.415Z,99.99
2016-12-17T04:15:23.904Z,99.9
2016-12-17T04:16:04.398Z,99.99
2016-12-17T04:16:44.882Z,99.71
2016-12-17T04:17:25.376Z,99.99
2016-12-17T04:18:05.889Z,99.99
2016-12-17T04:18:46.362Z,99.99
2016-12-17T04:19:26.851Z,99.71
2016-12-17T04:20:07.354Z,99.99
2016-12-17T04:20:47.824Z,99.62
2016-12-17T04:21:28.329Z,99.81
2016-12-17T04:22:08.807Z,99.99
2016-12-17T04:22:49.276Z,99.99
2016-12-17T04:23:29.751Z,99.99
2016-12-17T04:24:10.295Z,99.81
2016-12-17T04:24:50.755Z,99.71
2016-12-17T04:25:31.264Z,99.71
2016-12-17T04:26:11.751Z,99.71
2016-12-17T04:26:52.248Z,99.99
2016-12-17T04:27:32.733Z,99.62
2016-12-17T04:28:13.223Z,99.71
2016-12-17T04:28:53.712Z,99.81
2016-12-17T04:29:34.213Z,99.81
2016-12-17T04:30:14.703Z,99.99
2016-12-17T04:30:55.230Z,99.99
2016-12-17T04:31:35.713Z,99.99
2016-12-17T04:32:16.205Z,99.99
2016-12-17T04:32:56.708Z,99.99
2016-12-17T04:33:37.185Z,99.99
2016-12-17T04:34:17.674Z,99.99
2016-12-17T04:34:58.151Z,99.99
2016-12-17T04:35:38.629Z,99.99
2016-12-17T04:36:19.155Z,99.99
2016-12-17T04:36:59.654Z,99.99
2016-12-17T04:37:40.170Z,99.99
2016-12-17T04:38:20.669Z,99.99
2016-12-17T04:39:01.164Z,99.99
2016-12-17T04:39:41.645Z,99.99
2016-12-17T04:40:22.128Z,99.99
2016-12-17T04:41:02.630Z,99.99
2016-12-17T04:41:43.117Z,99.99
2016-12-17T04:42:23.612Z,99.99
2016-12-17T04:43:04.109Z,99.99
2016-12-17T04:43:44.596Z,99.99
2016-12-17T04:44:25.098Z,99.99
2016-12-17T04:45:05.595Z,99.99
2016-12-17T04:45:46.106Z,99.99
2016-12-17T04:46:26.607Z,99.99
2016-12-17T04:47:07.110Z,99.99
2016-12-17T04:47:47.595Z,99.71
2016-12-17T04:48:28.080Z,99.99
2016-12-17T04:49:08.572Z,99.99
2016-12-17T04:49:49.077Z,99.81
2016-12-17T04:50:29.549Z,99.81
2016-12-17T04:51:10.032Z,99.81
2016-12-17T04:51:50.519Z,99.99
2016-12-17T04:52:31.020Z,99.99
2016-12-17T04:53:11.511Z,99.99
2016-12-17T04:53:52.023Z,99.99
2016-12-17T04:54:32.506Z,99.81
2016-12-17T04:55:13.007Z,99.81
2016-12-17T04:55:53.491Z,99.99
2016-12-17T04:56:33.986Z,99.99
2016-12-17T04:57:14.483Z,99.99
2016-12-17T04:57:54.975Z,99.99
2016-12-17T04:58:35.503Z,99.71
2016-12-17T04:59:15.997Z,99.9
2016-12-17T04:59:56.483Z,99.99
2016-12-17T05:00:36.971Z,99.71
2016-12-17T05:01:17.438Z,99.62
2016-12-17T05:01:57.925Z,99.81
2016-12-17T05:02:38.409Z,99.52
2016-12-17T05:03:18.904Z,99.43
2016-12-17T05:03:59.408Z,99.71
2016-12-17T05:04:39.891Z,99.62
2016-12-17T05:05:20.372Z,99.99
2016-12-17T05:06:00.865Z,99.99
2016-12-17T05:06:41.364Z,99.52
2016-12-17T05:07:21.858Z,99.43
2016-12-17T05:08:02.347Z,99.81
2016-12-17T05:08:42.811Z,99.71
2016-12-17T05:09:23.304Z,99.81
2016-12-17T05:10:03.806Z,99.71
2016-12-17T05:10:44.298Z,99.81
2016-12-17T05:11:24.800Z,99.52
2016-12-17T05:12:05.296Z,99.71
2016-12-17T05:12:45.799Z,99.62
2016-12-17T05:13:26.279Z,99.62
2016-12-17T05:14:06.778Z,99.99
2016-12-17T05:14:47.271Z,99.43
2016-12-17T05:15:27.772Z,99.33
2016-12-17T05:16:08.261Z,99.33
2016-12-17T05:16:48.760Z,98.96
2016-12-17T05:17:29.254Z,99.24
2016-12-17T05:18:09.733Z,99.33
2016-12-17T05:18:50.226Z,99.33
2016-12-17T05:19:30.723Z,99.52
2016-12-17T05:20:11.214Z,99.43
2016-12-17T05:20:51.688Z,99.52
2016-12-17T05:21:32.166Z,99.33
2016-12-17T05:22:12.672Z,99.81
2016-12-17T05:22:53.157Z,99.71
2016-12-17T05:23:33.645Z,99.71
2016-12-17T05:24:14.133Z,99.99
2016-12-17T05:24:54.620Z,99.39
2016-12-17T05:25:35.151Z,99.33
2016-12-17T05:26:15.617Z,99.52
2016-12-17T05:26:56.086Z,99.33
2016-12-17T05:27:36.582Z,99.33
2016-12-17T05:28:17.073Z,98.86
2016-12-17T05:28:57.567Z,98.77
2016-12-17T05:29:38.062Z,98.91
2016-12-17T05:30:18.539Z,98.86
2016-12-17T05:30:59.034Z,99.33
2016-12-17T05:31:39.563Z,99.43
2016-12-17T05:32:20.041Z,99.52
2016-12-17T05:33:00.538Z,99.52
2016-12-17T05:33:41.016Z,99.71
2016-12-17T05:34:21.511Z,99.71
2016-12-17T05:35:01.995Z,99.71
2016-12-17T05:35:42.467Z,99.81
2016-12-17T05:36:22.962Z,99.99
2016-12-17T05:37:03.462Z,99.9
2016-12-17T05:37:43.928Z,99.99
2016-12-17T05:38:24.413Z,99.99
2016-12-17T05:39:04.919Z,99.99
2016-12-17T05:39:45.380Z,99.99
2016-12-17T05:40:25.882Z,99.71
2016-12-17T05:41:06.379Z,99.62
2016-12-17T05:41:46.871Z,99.99
2016-12-17T05:42:27.366Z,99.9
2016-12-17T05:43:07.866Z,99.62
2016-12-17T05:43:48.369Z,99.81
2016-12-17T05:44:28.863Z,99.77
2016-12-17T05:45:09.371Z,99.99
2016-12-17T05:45:49.857Z,99.99
2016-12-17T05:46:30.374Z,99.99
2016-12-17T05:47:10.868Z,99.99
2016-12-17T05:47:51.352Z,99.99
2016-12-17T05:48:31.851Z,99.99
2016-12-17T05:49:12.353Z,99.99
2016-12-17T05:49:52.830Z,99.99
2016-12-17T05:50:33.328Z,99.99
2016-12-17T05:51:13.822Z,99.99
2016-12-17T05:51:54.333Z,99.99
2016-12-17T05:52:34.803Z,99.99
2016-12-17T05:53:15.290Z,99.99
2016-12-17T05:53:55.796Z,99.99
2016-12-17T05:54:36.283Z,99.99
2016-12-17T05:55:16.773Z,99.9
2016-12-17T05:55:57.271Z,99.99
2016-12-17T05:56:37.784Z,99.99
2016-12-17T05:57:18.259Z,99.99
2016-12-17T05:57:58.747Z,99.81
2016-12-17T05:58:39.270Z,99.99
2016-12-17T05:59:19.731Z,99.99
2016-12-17T06:00:00.220Z,99.71
2016-12-17T06:00:40.700Z,99.99
2016-12-17T06:01:21.180Z,99.99
2016-12-17T06:02:01.674Z,99.99
2016-12-17T06:02:42.162Z,99.81
2016-12-17T06:03:22.663Z,99.99
2016-12-17T06:04:03.155Z,99.99
2016-12-17T06:04:43.659Z,99.99
2016-12-17T06:05:24.156Z,99.99
2016-12-17T06:06:04.666Z,99.99
2016-12-17T06:06:45.169Z,99.99
2016-12-17T06:07:25.668Z,99.99
2016-12-17T06:08:06.179Z,99.99
2016-12-17T06:08:46.663Z,99.99
2016-12-17T06:09:27.155Z,99.99
2016-12-17T06:10:07.668Z,99.99
2016-12-17T06:10:48.142Z,99.99
2016-12-17T06:11:28.639Z,99.71
2016-12-17T06:12:09.129Z,99.99
2016-12-17T06:12:49.618Z,99.99
2016-12-17T06:13:30.119Z,99.99
2016-12-17T06:14:10.584Z,99.99
2016-12-17T06:14:51.101Z,99.99
2016-12-17T06:15:31.578Z,99.99
2016-12-17T06:16:12.066Z,99.99
2016-12-17T06:16:52.559Z,99.99
2016-12-17T06:17:33.038Z,99.99
2016-12-17T06:18:13.517Z,99.99
2016-12-17T06:18:54.015Z,99.99
2016-12-17T06:19:34.503Z,99.99
2016-12-17T06:20:14.995Z,99.99
2016-12-17T06:20:55.485Z,99.99
2016-12-17T06:21:35.966Z,99.99
2016-12-17T06:22:16.442Z,99.99
2016-12-17T06:22:56.928Z,99.99
2016-12-17T06:23:37.397Z,99.99
2016-12-17T06:24:17.882Z,99.99
2016-12-17T06:24:58.366Z,99.99
2016-12-17T06:25:38.845Z,99.99
2016-12-17T06:26:19.347Z,99.99
2016-12-17T06:26:59.833Z,99.99
2016-12-17T06:27:40.394Z,99.99
2016-12-17T06:28:20.878Z,99.99
2016-12-17T06:29:01.374Z,99.99
2016-12-17T06:29:41.867Z,99.99
2016-12-17T06:30:22.348Z,99.99
2016-12-17T06:31:02.836Z,99.99
2016-12-17T06:31:43.316Z,99.99
2016-12-17T06:32:23.823Z,99.99
2016-12-17T06:33:04.324Z,99.99
2016-12-17T06:33:44.806Z,99.99
2016-12-17T06:34:25.286Z,99.99
2016-12-17T06:35:05.783Z,99.99
2016-12-17T06:35:46.268Z,99.99
2016-12-17T06:36:26.776Z,99.99
2016-12-17T06:37:07.255Z,99.99
2016-12-17T06:37:47.764Z,99.99
2016-12-17T06:38:28.250Z,99.99
2016-12-17T06:39:08.751Z,99.99
2016-12-17T06:39:49.235Z,99.99
2016-12-17T06:40:29.706Z,99.99
2016-12-17T06:41:10.198Z,99.99
2016-12-17T06:41:50.693Z,99.99
2016-12-17T06:42:31.182Z,99.99
2016-12-17T06:43:11.690Z,99.99
2016-12-17T06:43:52.179Z,99.99
2016-12-17T06:44:32.685Z,99.99
2016-12-17T06:45:13.163Z,99.99
2016-12-17T06:45:53.652Z,99.99
2016-12-17T06:46:34.149Z,99.99
2016-12-17T06:47:14.632Z,99.99
2016-12-17T06:47:55.125Z,99.99
2016-12-17T06:48:35.646Z,99.99
2016-12-17T06:49:16.146Z,99.99
2016-12-17T06:49:56.628Z,99.99
2016-12-17T06:50:37.116Z,99.99
2016-12-17T06:51:17.587Z,99.99
2016-12-17T06:51:58.070Z,99.99
2016-12-17T06:52:38.570Z,99.99
2016-12-17T06:53:19.049Z,99.99
2016-12-17T06:53:59.555Z,99.99
2016-12-17T06:54:40.040Z,99.99
2016-12-17T06:55:20.524Z,99.99
2016-12-17T06:56:01.008Z,99.99
2016-12-17T06:56:41.513Z,99.99
2016-12-17T06:57:22.010Z,99.99
2016-12-17T06:58:02.507Z,99.99
2016-12-17T06:58:43.002Z,99.99
2016-12-17T06:59:23.494Z,99.99
2016-12-17T07:00:03.973Z,99.99
2016-12-17T07:00:44.464Z,99.99
2016-12-17T07:01:24.958Z,99.99
2016-12-17T07:02:05.460Z,99.99
2016-12-17T07:02:45.966Z,99.99
2016-12-17T07:03:26.429Z,99.99
2016-12-17T07:04:06.926Z,99.99
2016-12-17T07:04:47.427Z,99.99
2016-12-17T07:05:27.937Z,99.99
2016-12-17T07:06:08.418Z,99.99
2016-12-17T07:06:48.902Z,99.99
2016-12-17T07:07:29.388Z,99.99
2016-12-17T07:08:09.901Z,99.99
2016-12-17T07:08:50.376Z,99.99
2016-12-17T07:09:30.853Z,99.99
2016-12-17T07:10:11.341Z,99.99
2016-12-17T07:10:51.836Z,99.99
2016-12-17T07:11:32.320Z,99.99
2016-12-17T07:12:12.809Z,99.99
2016-12-17T07:12:53.319Z,99.99
2016-12-17T07:13:33.803Z,99.99
2016-12-17T07:14:14.289Z,99.99
2016-12-17T07:14:54.795Z,99.81
2016-12-17T07:15:35.337Z,99.99
2016-12-17T07:16:15.805Z,99.9
2016-12-17T07:16:56.304Z,99.99
2016-12-17T07:17:36.791Z,99.81
2016-12-17T07:18:17.285Z,99.62
2016-12-17T07:18:57.783Z,99.71
2016-12-17T07:19:38.270Z,99.81
2016-12-17T07:20:18.785Z,99.9
2016-12-17T07:20:59.276Z,99.99
2016-12-17T07:21:39.773Z,99.9
2016-12-17T07:22:20.312Z,99.81
2016-12-17T07:23:00.758Z,99.81
2016-12-17T07:23:41.248Z,99.99
2016-12-17T07:24:21.744Z,99.99
2016-12-17T07:25:02.222Z,99.9
2016-12-17T07:25:42.711Z,99.9
2016-12-17T07:26:23.208Z,99.99
2016-12-17T07:27:03.698Z,99.81
2016-12-17T07:27:44.193Z,99.81
2016-12-17T07:28:24.700Z,99.99
2016-12-17T07:29:05.184Z,99.9
2016-12-17T07:29:45.687Z,99.81
2016-12-17T07:30:26.177Z,99.81
2016-12-17T07:31:06.641Z,99.9
2016-12-17T07:31:47.138Z,99.99
2016-12-17T07:32:27.629Z,99.99
2016-12-17T07:33:08.101Z,99.71
2016-12-17T07:33:48.611Z,99.71
2016-12-17T07:34:29.111Z,99.71
2016-12-17T07:35:09.613Z,99.99
2016-12-17T07:35:50.099Z,99.9
2016-12-17T07:36:30.669Z,99.99
2016-12-17T07:37:11.158Z,99.99
2016-12-17T07:37:51.634Z,99.99
2016-12-17T07:38:32.126Z,99.99
2016-12-17T07:39:12.605Z,99.99
2016-12-17T07:41:26.842Z,99.99
2016-12-17T07:42:07.249Z,99.99
2016-12-17T07:42:47.748Z,99.99
2016-12-17T07:43:28.260Z,99.99
2016-12-17T07:44:08.734Z,99.99
2016-12-17T07:44:49.226Z,99.99
2016-12-17T07:45:29.726Z,99.99
2016-12-17T07:46:10.217Z,99.99
2016-12-17T07:46:50.730Z,99.81
2016-12-17T07:47:31.227Z,99.99
2016-12-17T07:48:11.736Z,99.71
2016-12-17T07:48:52.235Z,99.62
2016-12-17T07:49:32.715Z,99.71
2016-12-17T07:50:13.196Z,99.99
2016-12-17T07:50:53.692Z,99.81
2016-12-17T07:51:34.187Z,99.62
2016-12-17T07:52:14.689Z,99.9
2016-12-17T07:52:55.175Z,99.99
2016-12-17T07:53:35.656Z,99.99
2016-12-17T07:54:16.145Z,99.9
2016-12-17T07:54:56.638Z,99.99
2016-12-17T07:55:37.124Z,99.99
2016-12-17T07:56:17.626Z,99.99
2016-12-17T07:56:58.105Z,99.99
2016-12-17T07:57:38.576Z,99.99
2016-12-17T07:58:19.068Z,99.99
2016-12-17T07:58:59.549Z,99.99
2016-12-17T07:59:40.021Z,99.99
2016-12-17T08:00:20.526Z,99.99
2016-12-17T08:01:01.021Z,99.99
2016-12-17T08:01:41.528Z,99.99
2016-12-17T08:02:22.002Z,99.99
2016-12-17T08:03:02.552Z,99.99
2016-12-17T08:03:42.991Z,99.99
2016-12-17T08:04:23.499Z,99.71
2016-12-17T08:05:03.983Z,99.99
2016-12-17T08:05:44.467Z,99.99
2016-12-17T08:06:24.961Z,99.99
2016-12-17T08:07:05.459Z,99.99
2016-12-17T08:07:45.959Z,99.99
2016-12-17T08:08:26.457Z,99.99
2016-12-17T08:09:06.955Z,99.99
2016-12-17T08:09:47.449Z,99.99
2016-12-17T08:10:27.964Z,99.99
2016-12-17T08:11:08.458Z,99.99
2016-12-17T08:11:48.960Z,99.9
2016-12-17T08:12:29.459Z,99.99
2016-12-17T08:13:09.947Z,99.81
2016-12-17T08:13:50.438Z,99.9
2016-12-17T08:14:30.942Z,99.81
2016-12-17T08:15:11.440Z,99.62
2016-12-17T08:15:51.923Z,99.71
2016-12-17T08:16:32.419Z,99.9
2016-12-17T08:17:12.909Z,99.81
2016-12-17T08:17:53.408Z,99.71
2016-12-17T08:18:33.894Z,99.9
2016-12-17T08:19:14.394Z,99.99
2016-12-17T08:19:54.899Z,99.9
2016-12-17T08:20:35.404Z,99.9
2016-12-17T08:21:15.921Z,99.81
2016-12-17T08:21:56.413Z,99.71
2016-12-17T08:22:36.918Z,99.81
2016-12-17T08:23:17.402Z,99.99
2016-12-17T08:23:57.877Z,99.81
2016-12-17T08:24:38.376Z,99.81
2016-12-17T08:25:18.876Z,99.81
2016-12-17T08:25:59.398Z,99.9
2016-12-17T08:26:39.892Z,99.33
2016-12-17T08:27:20.393Z,99.81
2016-12-17T08:28:00.881Z,99.71
2016-12-17T08:28:41.376Z,98.86
2016-12-17T08:29:21.849Z,99.1
2016-12-17T08:30:02.350Z,99.2
2016-12-17T08:30:42.845Z,99.15
2016-12-17T08:31:23.337Z,99.24
2016-12-17T08:32:03.817Z,99.05
2016-12-17T08:32:44.311Z,99.24
2016-12-17T08:33:24.799Z,99.01
2016-12-17T08:34:05.279Z,99.15
2016-12-17T08:34:45.761Z,98.77
2016-12-17T08:35:26.264Z,98.82
2016-12-17T08:36:06.740Z,98.01
2016-12-17T08:36:47.221Z,98.44
2016-12-17T08:37:27.748Z,98.44
2016-12-17T08:38:08.246Z,98.25
2016-12-17T08:38:48.742Z,98.3
2016-12-17T08:39:29.249Z,98.39
2016-12-17T08:40:09.743Z,98.54
2016-12-17T08:40:50.243Z,98.44
2016-12-17T08:41:30.765Z,98.91
2016-12-17T08:42:11.221Z,98.68
2016-12-17T08:42:51.716Z,99.33
2016-12-17T08:43:32.214Z,98.96